createdAt,value
2023-02-23T00:01:37.538Z,33.50
2023-02-23T00:04:04.598Z,33.78
2023-02-23T00:06:33.470Z,34.47
2023-02-23T00:09:01.349Z,31.67
2023-02-23T00:11:28.633Z,34.40
2023-02-23T00:13:56.831Z,32.78
2023-02-23T00:16:25.482Z,34.53
2023-02-23T00:18:55.803Z,31.67
2023-02-23T00:21:30.093Z,31.80
2023-02-23T00:24:01.351Z,42.45
2023-02-23T00:26:35.300Z,44.88
2023-02-23T00:29:05.224Z,48.92
2023-02-23T00:31:32.390Z,46.88
2023-02-23T00:34:01.456Z,43.33
2023-02-23T00:36:30.487Z,38.90
2023-02-23T00:39:00.684Z,37.25
2023-02-23T00:41:31.571Z,36.85
2023-02-23T00:44:00.034Z,34.40
2023-02-23T00:46:29.776Z,35.13
2023-02-23T00:48:58.762Z,36.42
2023-02-23T00:51:31.051Z,34.65
2023-02-23T00:53:59.650Z,36.17
2023-02-23T00:58:53.128Z,36.78
2023-02-23T01:01:20.039Z,39.42
2023-02-23T01:03:46.755Z,42.50
2023-02-23T01:06:15.254Z,39.13
2023-02-23T01:08:44.461Z,42.00
2023-02-23T01:11:17.123Z,43.75
2023-02-23T01:13:45.181Z,39.53
2023-02-23T01:16:15.384Z,39.70
2023-02-23T01:18:44.462Z,39.88
2023-02-23T01:21:23.890Z,40.47
2023-02-23T01:23:51.925Z,40.85
2023-02-23T01:26:24.477Z,42.88
2023-02-23T01:28:56.744Z,42.58
2023-02-23T01:31:24.790Z,41.95
2023-02-23T01:33:59.461Z,40.25
2023-02-23T01:36:27.183Z,39.85
2023-02-23T01:38:57.411Z,43.37
2023-02-23T01:41:24.985Z,47.10
2023-02-23T01:44:28.019Z,47.05
2023-02-23T01:46:54.403Z,46.90
2023-02-23T01:49:27.753Z,49.22
2023-02-23T01:52:20.794Z,47.75
2023-02-23T01:54:51.921Z,46.05
2023-02-23T01:57:21.901Z,44.13
2023-02-23T01:59:51.095Z,46.85
2023-02-23T02:02:20.982Z,47.28
2023-02-23T02:04:52.432Z,44.60
2023-02-23T02:07:23.385Z,43.28
2023-02-23T02:10:11.770Z,45.35
2023-02-23T02:15:16.920Z,39.58
2023-02-23T02:18:09.590Z,44.65
2023-02-23T02:20:54.688Z,44.10
2023-02-23T02:23:53.357Z,45.88
2023-02-23T02:26:32.042Z,46.15
2023-02-23T02:29:28.894Z,47.35
2023-02-23T02:32:20.194Z,50.50
2023-02-23T02:35:21.040Z,44.70
2023-02-23T02:38:04.299Z,47.05
2023-02-23T02:40:39.625Z,47.03
2023-02-23T02:43:15.079Z,47.63
2023-02-23T02:45:50.313Z,53.72
2023-02-23T02:48:39.012Z,48.40
2023-02-23T02:51:26.037Z,50.42
2023-02-23T02:54:06.651Z,50.47
2023-02-23T02:56:40.677Z,51.17
2023-02-23T02:59:30.521Z,50.88
2023-02-23T03:02:16.307Z,50.05
2023-02-23T03:05:02.421Z,47.28
2023-02-23T03:08:04.704Z,50.92
2023-02-23T03:11:05.483Z,51.40
2023-02-23T03:14:23.594Z,51.85
2023-02-23T03:20:12.180Z,50.13
2023-02-23T03:23:06.606Z,55.13
2023-02-23T03:26:05.325Z,54.17
2023-02-23T03:29:04.727Z,52.65
2023-02-23T03:32:07.217Z,47.28
2023-02-23T03:35:01.374Z,51.97
2023-02-23T03:37:53.862Z,50.92
2023-02-23T03:40:46.944Z,47.20
2023-02-23T03:43:41.811Z,50.72
2023-02-23T03:46:30.064Z,51.17
2023-02-23T03:49:18.743Z,49.42
2023-02-23T03:52:08.798Z,43.88
2023-02-23T03:54:59.924Z,43.38
2023-02-23T03:57:48.504Z,48.95
2023-02-23T04:00:40.810Z,50.33
2023-02-23T04:03:28.814Z,49.63
2023-02-23T04:06:16.127Z,49.05
2023-02-23T04:09:01.901Z,50.50
2023-02-23T04:11:59.140Z,49.95
2023-02-23T04:14:32.795Z,48.25
2023-02-23T04:16:59.894Z,49.17
2023-02-23T04:19:28.906Z,42.20
2023-02-23T04:21:55.590Z,46.28
2023-02-23T04:24:23.086Z,50.50
2023-02-23T04:26:49.697Z,51.15
2023-02-23T04:29:16.338Z,47.15
2023-02-23T04:31:42.822Z,49.53
2023-02-23T04:34:09.437Z,48.85
2023-02-23T04:36:36.304Z,50.05
2023-02-23T04:39:03.407Z,48.88
2023-02-23T04:41:29.986Z,48.90
2023-02-23T04:43:56.613Z,48.88
2023-02-23T04:46:23.138Z,48.75
2023-02-23T04:48:49.792Z,47.90
2023-02-23T04:51:16.478Z,49.28
2023-02-23T04:53:44.105Z,47.67
2023-02-23T04:56:12.052Z,48.65
2023-02-23T04:58:38.747Z,47.55
2023-02-23T05:01:06.891Z,46.50
2023-02-23T05:03:33.557Z,45.33
2023-02-23T05:06:00.419Z,46.47
2023-02-23T05:08:27.149Z,46.95
2023-02-23T05:10:53.752Z,44.92
2023-02-23T05:13:20.650Z,45.65
2023-02-23T05:15:47.054Z,46.22
2023-02-23T05:18:13.520Z,44.45
2023-02-23T05:20:44.966Z,47.38
2023-02-23T05:23:11.626Z,46.70
2023-02-23T05:25:39.501Z,47.42
2023-02-23T05:28:05.913Z,47.67
2023-02-23T05:30:33.213Z,48.08
2023-02-23T05:33:00.053Z,48.83
2023-02-23T05:35:26.805Z,47.30
2023-02-23T05:37:53.158Z,47.47
2023-02-23T05:40:19.864Z,48.40
2023-02-23T05:42:46.222Z,47.13
2023-02-23T05:45:12.714Z,48.10
2023-02-23T05:47:39.328Z,48.55
2023-02-23T05:50:10.097Z,46.90
2023-02-23T05:52:41.470Z,42.13
2023-02-23T05:55:11.421Z,45.42
2023-02-23T05:57:39.300Z,46.72
2023-02-23T06:00:09.837Z,48.15
2023-02-23T06:02:36.738Z,49.92
2023-02-23T06:05:03.469Z,48.58
2023-02-23T06:07:29.932Z,48.58
2023-02-23T06:09:56.510Z,47.05
2023-02-23T06:12:23.775Z,48.78
2023-02-23T06:14:50.804Z,47.55
2023-02-23T06:17:17.259Z,46.90
2023-02-23T06:19:44.545Z,46.72
2023-02-23T06:22:11.290Z,47.90
2023-02-23T06:24:37.636Z,47.67
2023-02-23T06:27:05.198Z,49.28
2023-02-23T06:29:31.551Z,47.03
2023-02-23T06:32:01.121Z,46.33
2023-02-23T06:34:27.781Z,46.70
2023-02-23T06:36:54.154Z,47.42
2023-02-23T06:39:20.735Z,46.10
2023-02-23T06:41:47.098Z,46.53
2023-02-23T06:44:13.835Z,46.88
2023-02-23T06:46:40.709Z,47.45
2023-02-23T06:49:07.353Z,47.38
2023-02-23T06:51:34.007Z,48.53
2023-02-23T06:54:00.371Z,48.03
2023-02-23T06:56:26.773Z,48.22
2023-02-23T06:58:53.373Z,47.97
2023-02-23T07:01:21.035Z,46.55
2023-02-23T07:03:47.939Z,46.88
2023-02-23T07:06:14.559Z,47.85
2023-02-23T07:08:41.044Z,45.95
2023-02-23T07:11:10.010Z,46.38
2023-02-23T07:13:36.673Z,50.42
2023-02-23T07:16:03.663Z,49.97
2023-02-23T07:18:30.078Z,48.65
2023-02-23T07:20:56.443Z,49.75
2023-02-23T07:23:22.818Z,50.13
2023-02-23T07:25:56.503Z,51.17
2023-02-23T07:28:23.010Z,50.83
2023-02-23T07:30:52.460Z,49.65
2023-02-23T07:33:18.855Z,51.20
2023-02-23T07:35:45.257Z,51.47
2023-02-23T07:38:13.386Z,49.78
2023-02-23T07:40:40.060Z,52.47
2023-02-23T07:43:07.188Z,51.28
2023-02-23T07:45:33.852Z,50.97
2023-02-23T07:48:00.323Z,50.35
2023-02-23T07:50:26.927Z,49.75
2023-02-23T07:52:53.667Z,52.55
2023-02-23T07:55:20.993Z,52.83
2023-02-23T07:57:47.642Z,50.70
2023-02-23T08:00:14.950Z,50.97
2023-02-23T08:02:41.565Z,50.88
2023-02-23T08:05:08.161Z,53.97
2023-02-23T08:07:34.667Z,53.38
2023-02-23T08:10:01.278Z,51.20
2023-02-23T08:12:28.000Z,52.05
2023-02-23T08:14:54.623Z,52.53
2023-02-23T08:17:20.986Z,53.35
2023-02-23T08:19:47.377Z,54.10
2023-02-23T08:22:13.716Z,56.78
2023-02-23T08:24:40.097Z,55.95
2023-02-23T08:27:06.481Z,56.72
2023-02-23T08:29:34.774Z,55.10
2023-02-23T08:32:04.652Z,56.13
2023-02-23T08:34:31.743Z,55.03
2023-02-23T08:36:58.174Z,55.45
2023-02-23T08:39:24.701Z,55.50
2023-02-23T08:41:51.406Z,55.55
2023-02-23T08:44:17.956Z,56.92
2023-02-23T08:46:45.365Z,57.25
2023-02-23T08:49:12.198Z,53.58
2023-02-23T08:51:38.947Z,56.15
2023-02-23T08:54:09.915Z,57.80
2023-02-23T08:56:36.287Z,57.65
2023-02-23T08:59:03.889Z,57.45
2023-02-23T09:01:30.446Z,56.20
2023-02-23T09:03:57.078Z,58.40
2023-02-23T09:06:28.115Z,58.15
2023-02-23T09:08:55.839Z,58.75
2023-02-23T09:11:23.717Z,61.80
2023-02-23T09:13:50.394Z,59.72
2023-02-23T09:16:17.455Z,60.17
2023-02-23T09:18:44.388Z,58.63
2023-02-23T09:21:18.876Z,57.75
2023-02-23T09:23:48.339Z,56.42
2023-02-23T09:26:15.101Z,58.40
2023-02-23T09:28:41.581Z,57.28
2023-02-23T09:31:13.253Z,54.67
2023-02-23T09:33:40.324Z,55.28
2023-02-23T09:36:13.015Z,54.10
2023-02-23T09:38:39.920Z,53.45
2023-02-23T09:41:28.308Z,52.08
2023-02-23T09:46:54.474Z,44.10
2023-02-23T09:49:25.572Z,45.10
2023-02-23T09:51:57.812Z,48.63
2023-02-23T09:54:29.743Z,46.90
2023-02-23T09:56:58.322Z,47.13
2023-02-23T10:02:00.731Z,40.15
2023-02-23T10:04:32.472Z,45.13
2023-02-23T10:07:13.229Z,47.05
2023-02-23T10:09:47.778Z,45.55
2023-02-23T10:12:28.597Z,45.92
2023-02-23T10:15:23.870Z,45.97
2023-02-23T10:18:03.146Z,45.97
2023-02-23T10:20:34.426Z,45.08
2023-02-23T10:23:09.574Z,45.50
2023-02-23T10:25:43.125Z,46.45
2023-02-23T10:28:17.434Z,45.10
2023-02-23T10:30:44.406Z,41.38
2023-02-23T10:33:17.422Z,42.17
2023-02-23T10:35:45.275Z,42.33
2023-02-23T10:38:19.050Z,40.35
2023-02-23T10:40:50.904Z,43.25
2023-02-23T10:43:17.314Z,40.90
2023-02-23T10:45:49.855Z,40.40
2023-02-23T10:48:38.784Z,40.97
2023-02-23T10:51:07.520Z,39.92
2023-02-23T10:53:36.312Z,42.03
2023-02-23T10:56:06.521Z,41.38
2023-02-23T10:58:43.344Z,42.63
2023-02-23T11:01:10.459Z,43.63
2023-02-23T11:03:44.308Z,42.97
2023-02-23T11:06:27.646Z,43.20
2023-02-23T11:08:54.708Z,41.10
2023-02-23T11:11:28.695Z,42.33
2023-02-23T11:13:57.233Z,40.03
2023-02-23T11:16:30.736Z,40.20
2023-02-23T11:19:02.550Z,39.65
2023-02-23T11:21:35.273Z,38.97
2023-02-23T11:24:25.212Z,37.88
2023-02-23T11:26:54.719Z,39.90
2023-02-23T11:29:35.014Z,41.53
2023-02-23T11:32:16.658Z,38.28
2023-02-23T11:34:43.942Z,40.83
2023-02-23T11:37:15.202Z,40.78
2023-02-23T11:40:02.745Z,41.17
2023-02-23T11:42:33.830Z,40.53
2023-02-23T11:45:19.346Z,38.72
2023-02-23T11:47:49.650Z,37.28
2023-02-23T11:50:24.473Z,36.58
2023-02-23T11:53:03.293Z,34.58
2023-02-23T11:55:32.703Z,34.40
2023-02-23T11:58:11.695Z,31.85
2023-02-23T12:00:39.106Z,31.63
2023-02-23T12:03:05.930Z,30.60
2023-02-23T12:05:34.019Z,31.13
2023-02-23T12:08:10.557Z,30.40
2023-02-23T12:10:58.170Z,29.45
2023-02-23T12:13:32.898Z,28.33
2023-02-23T12:16:05.408Z,25.00
2023-02-23T12:18:46.123Z,24.90
2023-02-23T12:21:51.107Z,23.13
2023-02-23T12:24:45.774Z,22.08
2023-02-23T12:27:24.140Z,23.48
2023-02-23T12:30:02.414Z,23.55
2023-02-23T12:32:51.348Z,21.50
2023-02-23T12:35:31.089Z,23.13
2023-02-23T12:38:08.786Z,23.08
2023-02-23T12:40:39.274Z,23.63
2023-02-23T12:43:22.071Z,22.67
2023-02-23T12:45:53.356Z,22.73
2023-02-23T12:48:36.034Z,23.00
2023-02-23T12:51:12.655Z,23.10
2023-02-23T12:53:43.680Z,23.73
2023-02-23T12:56:15.782Z,22.30
2023-02-23T12:59:14.552Z,23.42
2023-02-23T13:01:59.146Z,23.98
2023-02-23T13:04:43.938Z,22.05
2023-02-23T13:07:34.707Z,24.60
2023-02-23T13:10:43.492Z,24.48
2023-02-23T13:13:45.002Z,22.92
2023-02-23T13:16:34.403Z,22.38
2023-02-23T13:19:28.663Z,22.60
2023-02-23T13:22:05.690Z,24.38
2023-02-23T13:24:43.748Z,21.83
2023-02-23T13:27:29.042Z,23.13
2023-02-23T13:29:59.387Z,22.95
2023-02-23T13:32:32.149Z,22.83
2023-02-23T13:35:16.766Z,22.73
2023-02-23T13:37:53.279Z,24.08
2023-02-23T13:40:31.823Z,22.92
2023-02-23T13:45:48.952Z,21.63
2023-02-23T13:48:28.219Z,21.92
2023-02-23T13:51:15.964Z,21.15
2023-02-23T13:53:58.067Z,21.35
2023-02-23T13:56:28.021Z,22.67
2023-02-23T13:59:08.293Z,22.05
2023-02-23T14:01:40.756Z,23.05
2023-02-23T14:04:14.975Z,24.05
2023-02-23T14:06:53.735Z,22.90
2023-02-23T14:09:31.891Z,22.95
2023-02-23T14:12:33.713Z,24.38
2023-02-23T14:15:28.232Z,21.48
2023-02-23T14:17:55.392Z,21.25
2023-02-23T14:20:39.402Z,22.23
2023-02-23T14:23:21.270Z,22.67
2023-02-23T14:25:52.992Z,22.83
2023-02-23T14:28:30.733Z,22.85
2023-02-23T14:31:01.447Z,21.65
2023-02-23T14:33:52.296Z,21.88
2023-02-23T14:36:21.418Z,22.70
2023-02-23T14:38:54.540Z,23.45
2023-02-23T14:41:28.256Z,22.23
2023-02-23T14:44:00.227Z,23.13
2023-02-23T14:46:28.385Z,22.55
2023-02-23T14:49:01.218Z,22.83
2023-02-23T14:51:42.548Z,22.15
2023-02-23T14:54:26.094Z,22.30
2023-02-23T14:56:58.075Z,20.77
2023-02-23T14:59:43.224Z,22.33
2023-02-23T15:02:26.877Z,21.50
2023-02-23T15:04:54.296Z,20.45
2023-02-23T15:07:31.062Z,22.17
2023-02-23T15:09:59.911Z,24.10
2023-02-23T15:12:29.792Z,23.73
2023-02-23T15:15:00.383Z,22.73
2023-02-23T15:17:31.994Z,26.27
2023-02-23T15:20:17.352Z,23.23
2023-02-23T15:22:47.200Z,31.63
2023-02-23T15:25:15.471Z,25.33
2023-02-23T15:27:44.391Z,25.73
2023-02-23T15:30:27.425Z,22.48
2023-02-23T15:33:12.174Z,24.27
2023-02-23T15:35:49.957Z,22.90
2023-02-23T15:38:42.331Z,23.30
2023-02-23T15:41:15.610Z,23.35
2023-02-23T15:43:43.335Z,23.60
2023-02-23T15:46:23.110Z,23.15
2023-02-23T15:48:52.004Z,23.50
2023-02-23T15:51:29.039Z,23.45
2023-02-23T15:53:55.620Z,26.60
2023-02-23T15:56:30.262Z,24.20
2023-02-23T15:59:03.321Z,22.35
2023-02-23T16:01:31.546Z,29.70
2023-02-23T16:04:02.347Z,24.25
2023-02-23T16:06:41.889Z,23.90
2023-02-23T16:09:21.027Z,23.85
2023-02-23T16:11:50.624Z,27.33
2023-02-23T16:14:19.964Z,23.60
2023-02-23T16:17:01.337Z,25.90
2023-02-23T16:19:40.688Z,24.42
2023-02-23T16:22:22.482Z,23.00
2023-02-23T16:25:05.115Z,26.00
2023-02-23T16:27:32.109Z,24.60
2023-02-23T16:30:15.690Z,30.50
2023-02-23T16:32:43.723Z,28.83
2023-02-23T16:35:20.460Z,23.30
2023-02-23T16:38:01.044Z,23.77
2023-02-23T16:40:29.040Z,23.27
2023-02-23T16:42:59.775Z,28.00
2023-02-23T16:45:27.428Z,30.65
2023-02-23T16:47:54.130Z,27.77
2023-02-23T16:50:24.232Z,29.13
2023-02-23T16:52:53.051Z,23.30
2023-02-23T16:55:25.593Z,25.17
2023-02-23T16:57:57.841Z,24.38
2023-02-23T17:00:28.540Z,23.13
2023-02-23T17:02:55.885Z,25.63
2023-02-23T17:05:26.572Z,25.45
2023-02-23T17:07:53.673Z,23.25
2023-02-23T17:10:34.533Z,23.58
2023-02-23T17:13:07.190Z,23.55
2023-02-23T17:15:41.029Z,25.65
2023-02-23T17:18:07.790Z,23.15
2023-02-23T17:20:34.555Z,25.50
2023-02-23T17:23:02.193Z,26.20
2023-02-23T17:25:28.937Z,25.05
2023-02-23T17:27:57.315Z,23.88
2023-02-23T17:30:24.345Z,24.30
2023-02-23T17:32:52.480Z,24.65
2023-02-23T17:35:19.289Z,24.50
2023-02-23T17:37:46.006Z,23.52
2023-02-23T17:40:18.717Z,24.80
2023-02-23T17:42:45.110Z,24.95
2023-02-23T17:45:11.513Z,25.73
2023-02-23T17:47:58.144Z,25.50
2023-02-23T17:50:27.093Z,24.10
2023-02-23T17:52:54.235Z,24.02
2023-02-23T17:55:22.175Z,24.73
2023-02-23T17:57:48.643Z,23.90
2023-02-23T18:00:18.675Z,25.58
2023-02-23T18:02:46.117Z,26.25
2023-02-23T18:05:14.075Z,29.58
2023-02-23T18:07:40.528Z,27.17
2023-02-23T18:10:07.597Z,27.17
2023-02-23T18:12:34.008Z,26.00
2023-02-23T18:15:00.401Z,39.05
2023-02-23T18:17:27.917Z,41.55
2023-02-23T18:19:54.335Z,29.67
2023-02-23T18:22:20.729Z,44.25
2023-02-23T18:24:47.077Z,30.27
2023-02-23T18:27:13.488Z,25.23
2023-02-23T18:29:40.455Z,24.70
2023-02-23T18:32:07.713Z,23.63
2023-02-23T18:34:35.528Z,24.75
2023-02-23T18:37:03.423Z,23.57
2023-02-23T18:39:31.445Z,23.05
2023-02-23T18:41:58.475Z,22.52
2023-02-23T18:44:25.450Z,23.40
2023-02-23T18:46:53.083Z,23.27
2023-02-23T18:49:22.367Z,25.02
2023-02-23T18:51:48.839Z,28.40
2023-02-23T18:54:18.572Z,36.35
2023-02-23T18:56:47.393Z,29.92
2023-02-23T18:59:14.688Z,29.77
2023-02-23T19:01:45.105Z,28.45
2023-02-23T19:04:13.901Z,27.33
2023-02-23T19:06:44.689Z,23.25
2023-02-23T19:09:14.548Z,23.90
2023-02-23T19:11:42.717Z,24.63
2023-02-23T19:14:16.034Z,22.10
2023-02-23T19:16:43.191Z,24.67
2023-02-23T19:19:10.085Z,28.85
2023-02-23T19:21:37.947Z,42.60
2023-02-23T19:24:05.570Z,32.67
2023-02-23T19:26:33.802Z,30.70
2023-02-23T19:29:00.157Z,28.20
2023-02-23T19:31:28.319Z,26.48
2023-02-23T19:33:56.989Z,27.02
2023-02-23T19:39:06.015Z,25.73
2023-02-23T19:41:34.329Z,24.90
2023-02-23T19:44:01.154Z,25.98
2023-02-23T19:46:28.211Z,26.70
2023-02-23T19:48:55.449Z,24.35
2023-02-23T19:51:23.231Z,26.33
2023-02-23T19:53:50.051Z,29.08
2023-02-23T19:56:17.032Z,26.60
2023-02-23T19:58:46.473Z,25.92
2023-02-23T20:01:16.549Z,26.00
2023-02-23T20:03:44.764Z,25.27
2023-02-23T20:06:13.938Z,23.83
2023-02-23T20:08:41.475Z,23.85
2023-02-23T20:11:08.052Z,26.00
2023-02-23T20:13:35.384Z,24.85
2023-02-23T20:16:10.889Z,23.30
2023-02-23T20:18:39.927Z,24.52
2023-02-23T20:21:14.185Z,24.52
2023-02-23T20:23:42.331Z,34.92
2023-02-23T20:26:12.232Z,27.77
2023-02-23T20:28:40.129Z,25.27
2023-02-23T20:31:21.260Z,28.52
2023-02-23T20:33:51.081Z,26.85
2023-02-23T20:36:18.130Z,32.55
2023-02-23T20:38:44.805Z,33.15
2023-02-23T20:41:12.360Z,27.73
2023-02-23T20:43:39.311Z,29.33
2023-02-23T20:46:06.484Z,25.27
2023-02-23T20:48:34.707Z,24.17
2023-02-23T20:51:02.003Z,24.48
2023-02-23T20:53:29.491Z,22.92
2023-02-23T20:55:56.262Z,24.48
2023-02-23T20:58:25.431Z,25.00
2023-02-23T21:00:58.134Z,23.50
2023-02-23T21:03:25.342Z,23.98
2023-02-23T21:05:52.353Z,24.27
2023-02-23T21:08:20.018Z,21.23
2023-02-23T21:10:48.766Z,15.33
2023-02-23T21:13:16.161Z,12.65
2023-02-23T21:15:44.027Z,11.38
2023-02-23T21:18:12.856Z,10.32
2023-02-23T21:20:40.064Z,10.07
2023-02-23T21:23:06.446Z,9.30
2023-02-23T21:25:33.092Z,8.70
2023-02-23T21:28:01.834Z,7.70
2023-02-23T21:30:29.452Z,7.85
2023-02-23T21:32:57.366Z,7.80
2023-02-23T21:35:24.158Z,6.75
2023-02-23T21:37:51.613Z,7.55
2023-02-23T21:40:21.150Z,6.63
2023-02-23T21:42:48.989Z,7.15
2023-02-23T21:45:16.305Z,7.90
2023-02-23T21:47:45.180Z,7.60
2023-02-23T21:50:15.429Z,7.40
2023-02-23T21:52:43.821Z,7.65
2023-02-23T21:55:21.248Z,9.05
2023-02-23T21:57:48.659Z,8.93
2023-02-23T22:00:16.488Z,8.18
2023-02-23T22:02:46.833Z,9.27
2023-02-23T22:05:16.167Z,9.98
2023-02-23T22:07:48.692Z,9.18
2023-02-23T22:10:16.687Z,9.07
2023-02-23T22:12:43.058Z,10.07
2023-02-23T22:15:12.489Z,8.43
2023-02-23T22:17:39.076Z,8.10
2023-02-23T22:20:07.278Z,8.23
2023-02-23T22:22:36.074Z,9.18
2023-02-23T22:25:04.024Z,8.38
2023-02-23T22:27:31.197Z,8.32
2023-02-23T22:30:01.358Z,8.20
2023-02-23T22:32:32.476Z,7.88
2023-02-23T22:35:00.484Z,9.27
2023-02-23T22:37:29.654Z,8.18
2023-02-23T22:39:57.516Z,6.70
2023-02-23T22:42:24.511Z,7.18
2023-02-23T22:44:51.145Z,6.72
2023-02-23T22:47:17.725Z,5.90
2023-02-23T22:49:46.628Z,6.13
2023-02-23T22:52:13.309Z,5.00
2023-02-23T22:54:39.723Z,4.78
2023-02-23T22:57:06.692Z,4.45
2023-02-23T22:59:33.417Z,5.38
2023-02-23T23:01:59.915Z,4.72
2023-02-23T23:04:26.789Z,4.85
2023-02-23T23:06:53.220Z,5.32
2023-02-23T23:09:22.103Z,4.38
2023-02-23T23:11:51.313Z,5.05
2023-02-23T23:14:19.451Z,4.15
2023-02-23T23:16:51.875Z,5.32
2023-02-23T23:19:25.269Z,3.88
2023-02-23T23:21:57.345Z,4.60
2023-02-23T23:24:24.837Z,4.85
2023-02-23T23:26:58.080Z,5.00
2023-02-23T23:29:29.927Z,4.20
2023-02-23T23:32:01.364Z,4.90
2023-02-23T23:34:27.892Z,4.70
2023-02-23T23:36:55.219Z,4.88
2023-02-23T23:39:25.822Z,5.75
2023-02-23T23:41:52.477Z,5.97
2023-02-23T23:44:22.341Z,5.57
2023-02-23T23:46:50.688Z,6.32
2023-02-23T23:49:20.116Z,6.25
2023-02-23T23:51:50.457Z,6.70
2023-02-23T23:54:23.082Z,6.28
2023-02-23T23:56:50.356Z,7.28
2023-02-23T23:59:20.518Z,7.60
